Map

Track Data

SID SEASON NUMBER BASIN SUBBASIN NAME ISO_TIME NATURE LAT LON WMO_WIND WMO_PRES WMO_AGENCY TRACK_TYPE DIST2LAND LANDFALL IFLAG USA_AGENCY USA_ATCF_ID USA_LAT USA_LON USA_RECORD USA_STATUS USA_WIND USA_PRES USA_SSHS USA_R34_NE USA_R34_SE USA_R34_SW USA_R34_NW USA_R50_NE USA_R50_SE USA_R50_SW USA_R50_NW USA_R64_NE USA_R64_SE USA_R64_SW USA_R64_NW USA_POCI USA_ROCI USA_RMW USA_EYE TOKYO_LAT TOKYO_LON TOKYO_GRADE TOKYO_WIND TOKYO_PRES TOKYO_R50_DIR TOKYO_R50_LONG TOKYO_R50_SHORT TOKYO_R30_DIR TOKYO_R30_LONG TOKYO_R30_SHORT TOKYO_LAND CMA_LAT CMA_LON CMA_CAT CMA_WIND CMA_PRES HKO_LAT HKO_LON HKO_CAT HKO_WIND HKO_PRES NEWDELHI_LAT NEWDELHI_LON NEWDELHI_GRADE NEWDELHI_WIND NEWDELHI_PRES NEWDELHI_CI NEWDELHI_DP NEWDELHI_POCI REUNION_LAT REUNION_LON REUNION_TYPE REUNION_WIND REUNION_PRES REUNION_TNUM REUNION_CI REUNION_RMW REUNION_R34_NE REUNION_R34_SE REUNION_R34_SW REUNION_R34_NW REUNION_R50_NE REUNION_R50_SE REUNION_R50_SW REUNION_R50_NW REUNION_R64_NE REUNION_R64_SE REUNION_R64_SW REUNION_R64_NW BOM_LAT BOM_LON BOM_TYPE BOM_WIND BOM_PRES BOM_TNUM BOM_CI BOM_RMW BOM_R34_NE BOM_R34_SE BOM_R34_SW BOM_R34_NW BOM_R50_NE BOM_R50_SE BOM_R50_SW BOM_R50_NW BOM_R64_NE BOM_R64_SE BOM_R64_SW BOM_R64_NW BOM_ROCI BOM_POCI BOM_EYE BOM_POS_METHOD BOM_PRES_METHOD NADI_LAT NADI_LON NADI_CAT NADI_WIND NADI_PRES WELLINGTON_LAT WELLINGTON_LON WELLINGTON_WIND WELLINGTON_PRES DS824_LAT DS824_LON DS824_STAGE DS824_WIND DS824_PRES TD9636_LAT TD9636_LON TD9636_STAGE TD9636_WIND TD9636_PRES TD9635_LAT TD9635_LON TD9635_WIND TD9635_PRES TD9635_ROCI NEUMANN_LAT NEUMANN_LON NEUMANN_CLASS NEUMANN_WIND NEUMANN_PRES MLC_LAT MLC_LON MLC_CLASS MLC_WIND MLC_PRES USA_GUST BOM_GUST BOM_GUST_PER REUNION_GUST REUNION_GUST_PER USA_SEAHGT USA_SEARAD_NE USA_SEARAD_SE USA_SEARAD_SW USA_SEARAD_NW STORM_SPEED STORM_DIR
1939040S13128 1939 13 SI WA NOT_NAMED 1939-02-08 23:00:00 NR -13.3000 128.000 main 101 21 __________O___ -1 -13.3000 128.000 7 139 237
1939040S13128 1939 13 SI WA NOT_NAMED 1939-02-08 23:30:00 NR -13.9336 127.007 bom main 0 0 ______O___P___ -1 -15.0000 125.200 -13.4004 127.910 7 88 236
1939040S13128 1939 13 SI WA NOT_NAMED 1939-02-09 00:00:00 NR -14.1093 126.751 main 0 0 ______P___P___ -1 -15.0220 125.148 -13.5008 127.820 7 17 230
1939040S13128 1939 13 SI WA NOT_NAMED 1939-02-09 03:00:00 NR -14.5715 126.222 main 0 0 ______P___P___ -1 -15.2015 124.820 -14.0990 127.273 7 16 230
1939040S13128 1939 13 SI WA NOT_NAMED 1939-02-09 04:00:00 NR -14.7979 125.893 bom main 0 0 ______O___P___ -1 -15.3000 124.700 -14.2957 127.087 7 17 229
1939040S13128 1939 13 SI WA NOT_NAMED 1939-02-09 06:00:00 NR -15.1237 125.573 main 0 0 ______P___P___ -1 -15.5642 124.437 -14.6833 126.708 7 14 224
1939040S13128 1939 13 SI WA NOT_NAMED 1939-02-09 07:00:00 NR -15.2866 125.407 bom main 0 0 ______O___P___ -1 -15.7000 124.300 -14.8733 126.515 7 13 228
1939040S13128 1939 13 SI WA NOT_NAMED 1939-02-09 09:00:00 NR -15.5724 125.058 main 0 0 ______P___P___ -1 -15.9008 124.001 -15.2440 126.116 7 13 232
1939040S13128 1939 13 SI WA NOT_NAMED 1939-02-09 11:00:00 NR -15.8267 124.698 main 0 0 ______P___O___ -1 -16.0535 123.697 -15.6000 125.700 7 13 234
1939040S13128 1939 13 SI WA NOT_NAMED 1939-02-09 12:00:00 NR -15.9450 124.519 main 0 0 ______P___P___ -1 -16.1184 123.552 -15.7716 125.485 7 12 236
1939040S13128 1939 13 SI WA NOT_NAMED 1939-02-09 15:00:00 NR -16.2787 124.008 bom main 0 0 ______O___P___ -1 -16.3000 123.200 -16.2575 124.815 7 11 235
1939040S13128 1939 13 SI WA NOT_NAMED 1939-02-09 18:00:00 NR -16.5975 123.564 bom main 0 0 ______O___P___ -1 -16.5000 123.000 -16.6951 124.128 7 11 235
1939040S13128 1939 13 SI WA NOT_NAMED 1939-02-09 21:00:00 NR -16.8966 123.092 main 0 0 ______P___P___ -1 -16.7152 122.740 -17.0780 123.443 7 11 238
1939040S13128 1939 13 SI WA NOT_NAMED 1939-02-09 23:00:00 NR -17.0803 122.766 main 0 0 ______P___O___ -1 -16.8606 122.532 -17.3000 123.000 7 11 240
1939040S13128 1939 13 SI WA NOT_NAMED 1939-02-10 00:00:00 NR -17.1652 122.603 main 0 0 ______P___P___ -1 -16.9314 122.419 -17.3990 122.788 7 11 242
1939040S13128 1939 13 SI WA NOT_NAMED 1939-02-10 01:00:00 NR -17.2449 122.440 bom main 0 0 ______O___P___ -1 -17.0000 122.300 -17.4898 122.579 7 10 245
1939040S13128 1939 13 SI WA NOT_NAMED 1939-02-10 03:00:00 NR -17.3841 122.113 main 10 10 ______P___P___ -1 -17.1169 122.057 -17.6514 122.169 7 10 248
1939040S13128 1939 13 SI WA NOT_NAMED 1939-02-10 06:00:00 NR -17.5643 121.609 main 53 53 ______P___P___ -1 -17.2676 121.649 -17.8610 121.570 7 10 251
1939040S13128 1939 13 SI WA NOT_NAMED 1939-02-10 09:00:00 NR -17.7271 121.091 main 106 106 ______P___P___ -1 -17.3952 121.197 -18.0590 120.985 7 11 252
1939040S13128 1939 13 SI WA NOT_NAMED 1939-02-10 11:00:00 NR -17.8356 120.737 main 138 131 ______P___O___ -1 -17.4712 120.875 -18.2000 120.600 7 11 252
1939040S13128 1939 13 SI WA NOT_NAMED 1939-02-10 12:00:00 NR -17.8967 120.555 main 140 140 ______P___P___ -1 -17.5073 120.709 -18.2860 120.400 7 11 251
1939040S13128 1939 13 SI WA NOT_NAMED 1939-02-10 15:00:00 NR -18.0837 119.999 main 187 187 ______P___P___ -1 -17.6114 120.195 -18.5560 119.804 7 11 250
1939040S13128 1939 13 SI WA NOT_NAMED 1939-02-10 18:00:00 NR -18.2757 119.441 main 194 180 ______P___P___ -1 -17.7153 119.663 -18.8361 119.220 7 11 250
1939040S13128 1939 13 SI WA NOT_NAMED 1939-02-10 21:00:00 NR -18.4718 118.890 main 180 175 ______P___P___ -1 -17.8265 119.122 -19.1170 118.658 7 11 249
1939040S13128 1939 13 SI WA NOT_NAMED 1939-02-10 23:00:00 NR -18.6044 118.530 main 179 172 ______P___O___ -1 -17.9087 118.760 -19.3000 118.300 7 11 249
1939040S13128 1939 13 SI WA NOT_NAMED 1939-02-11 00:00:00 NR -18.6722 118.353 main 172 172 ______P___P___ -1 -17.9531 118.579 -19.3913 118.126 7 11 248
1939040S13128 1939 13 SI WA NOT_NAMED 1939-02-11 01:00:00 NR -18.7412 118.178 bom main 182 169 ______O___P___ -1 -18.0000 118.400 -19.4824 117.955 7 11 246
1939040S13128 1939 13 SI WA NOT_NAMED 1939-02-11 03:00:00 NR -18.8903 117.836 main 170 151 ______P___P___ -1 -18.1183 118.048 -19.6622 117.624 7 14 239
1939040S13128 1939 13 SI WA NOT_NAMED 1939-02-11 06:00:00 NR -19.3355 117.117 main 148 101 _____OP___P___ -1 -21.1000 115.400 99 9.90000 -18.3088 117.513 -19.9211 117.149 7 15 237
1939040S13128 1939 13 SI WA NOT_NAMED 1939-02-11 09:00:00 NR -19.6923 116.529 main 102 88 _____PP___P___ -1 -21.1202 115.304 99 -18.5123 116.975 -20.1584 116.695 7 13 237
1939040S13128 1939 13 SI WA NOT_NAMED 1939-02-11 11:00:00 NR -19.9288 116.162 main 94 91 _____PP___O___ -1 -21.1339 115.240 99 -18.6537 116.617 -20.3000 116.400 7 13 234
1939040S13128 1939 13 SI WA NOT_NAMED 1939-02-11 12:00:00 NR -20.0784 115.960 main 91 88 _____PP___P___ -1 -21.1409 115.208 99 -18.7259 116.439 -20.3684 116.234 7 9 242
1939040S13128 1939 13 SI WA NOT_NAMED 1939-02-11 15:00:00 NR -20.2209 115.588 main 100 98 _____PP___P___ -1 -21.1624 115.111 99 -18.9467 115.912 -20.5536 115.741 7 7 248
1939040S13128 1939 13 SI WA NOT_NAMED 1939-02-11 18:00:00 NR -20.3554 115.232 main 106 106 _____PP___P___ -1 -21.1853 115.012 99 -19.1720 115.400 -20.7087 115.284 7 7 248
1939040S13128 1939 13 SI WA NOT_NAMED 1939-02-11 21:00:00 NR -20.4809 114.907 main 121 121 _____PP___P___ -1 -21.2101 114.913 99 -19.3991 114.909 -20.8336 114.898 7 6 247
1939040S13128 1939 13 SI WA NOT_NAMED 1939-02-11 23:00:00 NR -20.5593 114.714 main 123 123 _____PP___O___ -1 -21.2278 114.845 99 -19.5501 114.598 -20.9000 114.700 7 6 246
1939040S13128 1939 13 SI WA NOT_NAMED 1939-02-12 00:00:00 NR -20.5978 114.629 main 126 126 _____PP___P___ -1 -21.2371 114.811 99 -19.6252 114.447 -20.9310 114.629 7 5 244
1939040S13128 1939 13 SI WA NOT_NAMED 1939-02-12 01:00:00 NR -20.6350 114.550 bom main 129 119 _____PO___P___ -1 -21.2467 114.777 99 -19.7000 114.300 -20.9583 114.572 7 5 244
1939040S13128 1939 13 SI WA NOT_NAMED 1939-02-12 03:00:00 NR -20.7007 114.405 main 123 116 _____PP___P___ -1 -21.2669 114.707 99 -19.8321 114.014 -21.0029 114.494 7 4 243
1939040S13128 1939 13 SI WA NOT_NAMED 1939-02-12 06:00:00 NR -20.7931 114.216 main 119 111 _____OP___P___ -1 -21.3000 114.600 99 9.90000 -20.0289 113.607 -21.0504 114.440 7 4 242
1939040S13128 1939 13 SI WA NOT_NAMED 1939-02-12 09:00:00 NR -20.8818 114.045 main 111 111 _____PP___P___ -1 -21.3365 114.490 99 -20.2263 113.228 -21.0826 114.419 7 4 241
1939040S13128 1939 13 SI WA NOT_NAMED 1939-02-12 11:00:00 NR -20.9406 113.934 main 112 101 _____PP___O___ -1 -21.3623 114.414 99 -20.3596 112.989 -21.1000 114.400 7 4 241
1939040S13128 1939 13 SI WA NOT_NAMED 1939-02-12 12:00:00 NR -20.9702 113.875 main 101 94 _____PP___P___ -1 -21.3756 114.375 99 -20.4270 112.873 -21.1080 114.376 7 4 242
1939040S13128 1939 13 SI WA NOT_NAMED 1939-02-12 15:00:00 NR -21.0582 113.699 main 94 94 _____PP___P___ -1 -21.4161 114.254 99 -20.6338 112.543 -21.1248 114.302 7 4 241
1939040S13128 1939 13 SI WA NOT_NAMED 1939-02-12 18:00:00 NR -21.1490 113.524 main 103 93 _____PP___P___ -1 -21.4569 114.125 99 -20.8492 112.235 -21.1409 114.213 7 4 240
1939040S13128 1939 13 SI WA NOT_NAMED 1939-02-12 21:00:00 NR -21.2471 113.345 main 106 98 _____PP___P___ -1 -21.4968 113.987 99 -21.0758 111.949 -21.1687 114.098 7 4 239
1939040S13128 1939 13 SI WA NOT_NAMED 1939-02-12 23:00:00 NR -21.3190 113.220 main 106 99 _____PP___O___ -1 -21.5224 113.889 99 -21.2345 111.770 -21.2000 114.000 7 4 238
1939040S13128 1939 13 SI WA NOT_NAMED 1939-02-13 00:00:00 NR -21.3573 113.155 main 99 99 _____PP___P___ -1 -21.5348 113.838 99 -21.3163 111.684 -21.2208 113.943 7 4 237
1939040S13128 1939 13 SI WA NOT_NAMED 1939-02-13 01:00:00 NR -21.3970 113.089 bom main 108 108 _____PO___P___ -1 -21.5468 113.785 99 -21.4000 111.600 -21.2443 113.881 7 5 237
1939040S13128 1939 13 SI WA NOT_NAMED 1939-02-13 03:00:00 NR -21.4844 112.946 main 122 122 _____PP___P___ -1 -21.5696 113.676 99 -21.5847 111.416 -21.2988 113.745 7 5 236
1939040S13128 1939 13 SI WA NOT_NAMED 1939-02-13 06:00:00 NR -21.6248 112.725 main 135 131 _____OP___P___ -1 -21.6000 113.500 99 9.90000 -21.8766 111.158 -21.3976 113.516 7 5 238
1939040S13128 1939 13 SI WA NOT_NAMED 1939-02-13 09:00:00 NR -21.7503 112.492 main 144 144 _____PP___P___ -1 -21.5553 113.285 99 -22.1816 110.921 -21.5141 113.269 7 5 240
1939040S13128 1939 13 SI WA NOT_NAMED 1939-02-13 11:00:00 NR -21.8357 112.335 main 160 154 _____PP___O___ -1 -21.5177 113.132 99 -22.3894 110.774 -21.6000 113.100 7 5 240
1939040S13128 1939 13 SI WA NOT_NAMED 1939-02-13 12:00:00 NR -21.8764 112.260 main 154 154 _____PP___P___ -1 -21.4982 113.053 99 -22.4941 110.704 -21.6371 113.022 7 5 239
1939040S13128 1939 13 SI WA NOT_NAMED 1939-02-13 15:00:00 NR -22.0028 112.035 main 177 177 _____PP___P___ -1 -21.4429 112.811 99 -22.8085 110.507 -21.7569 112.785 7 5 238
1939040S13128 1939 13 SI WA NOT_NAMED 1939-02-13 18:00:00 NR -22.1400 111.812 main 193 190 _____PP___P___ -1 -21.4040 112.567 99 -23.1194 110.331 -21.8967 112.539 7 5 234
1939040S13128 1939 13 SI WA NOT_NAMED 1939-02-13 21:00:00 NR -22.2943 111.594 main 208 208 _____PP___P___ -1 -21.3957 112.326 99 -23.4212 110.175 -22.0661 112.280 7 5 231
1939040S13128 1939 13 SI WA NOT_NAMED 1939-02-13 23:00:00 NR -22.4097 111.452 main 216 216 _____PP___O___ -1 -21.4144 112.172 99 -23.6147 110.083 -22.2000 112.100 7 5 229
1939040S13128 1939 13 SI WA NOT_NAMED 1939-02-14 00:00:00 NR -22.4692 111.379 main 226 226 _____PP___P___ -1 -21.4326 112.097 99 -23.7085 110.040 -22.2664 112.001 7 5 227
1939040S13128 1939 13 SI WA NOT_NAMED 1939-02-14 01:00:00 NR -22.5313 111.308 bom main 236 236 _____PO___P___ -1 -21.4575 112.025 99 -23.8000 110.000 -22.3366 111.898 7 6 225
1939040S13128 1939 13 SI WA NOT_NAMED 1939-02-14 03:00:00 NR -22.6648 111.167 main 246 246 _____PP___P___ -1 -21.5292 111.886 99 -23.9759 109.926 -22.4894 111.689 7 6 221
1939040S13128 1939 13 SI WA NOT_NAMED 1939-02-14 06:00:00 NR -22.8921 110.968 main 268 268 _____OP___P___ -1 -21.7000 111.700 99 9.90000 -24.2233 109.830 -22.7531 111.373 7 6 213
1939040S13128 1939 13 SI WA NOT_NAMED 1939-02-14 09:00:00 NR -23.1845 110.794 main 285 283 _____PP___P___ -1 -22.0366 111.555 99 -24.4533 109.751 -23.0637 111.077 7 7 206
1939040S13128 1939 13 SI WA NOT_NAMED 1939-02-14 11:00:00 NR -23.4017 110.692 main 290 288 _____PP___O___ -1 -22.3069 111.470 99 -24.5983 109.706 -23.3000 110.900 7 7 202
1939040S13128 1939 13 SI WA NOT_NAMED 1939-02-14 12:00:00 NR -23.5165 110.646 main 298 291 _____PP___P___ -1 -22.4533 111.432 99 -24.6686 109.686 -23.4275 110.820 7 8 198
1939040S13128 1939 13 SI WA NOT_NAMED 1939-02-14 15:00:00 NR -23.8805 110.524 main 299 295 _____PP___P___ -1 -22.9263 111.327 99 -24.8721 109.632 -23.8430 110.613 7 8 195
1939040S13128 1939 13 SI WA NOT_NAMED 1939-02-14 18:00:00 NR -24.2622 110.421 main 303 303 _____PP___P___ -1 -23.4318 111.240 99 -25.0665 109.586 -24.2970 110.442 7 8 192
1939040S13128 1939 13 SI WA NOT_NAMED 1939-02-14 21:00:00 NR -24.6352 110.344 main 314 306 _____PP___P___ -1 -23.9459 111.166 99 -25.2545 109.547 -24.7751 110.293 7 6 0
1939040S13128 1939 13 SI WA NOT_NAMED 1939-02-14 23:00:00 NR -24.7949 110.408 main 306 296 _____PP___O___ -1 -24.2815 111.123 99 -25.3777 109.523 -25.1000 110.200 7 5 124
1939040S13128 1939 13 SI WA NOT_NAMED 1939-02-15 00:00:00 NR -24.7760 110.572 main 286 276 _____PP_______ -1 -24.4445 111.103 99 -25.4389 109.512 7 10 88
1939040S13128 1939 13 SI WA NOT_NAMED 1939-02-15 01:00:00 NR -24.7825 110.767 bom main 266 246 _____PO_______ -1 -24.6032 111.084 99 -25.5000 109.500 7 9 107
1939040S13128 1939 13 SI WA NOT_NAMED 1939-02-15 03:00:00 NR -24.9038 111.049 main 248 238 _____P________ -1 -24.9038 111.049 99 7 7 158
1939040S13128 1939 13 SI WA NOT_NAMED 1939-02-15 06:00:00 NR -25.3000 111.000 main 244 236 _____O________ -1 -25.3000 111.000 99 9.90000 7 7 187
1939040S13128 1939 13 SI WA NOT_NAMED 1939-02-15 09:00:00 NR -25.6150 110.955 main 236 236 _____P________ -1 -25.6150 110.955 99 7 6 188
1939040S13128 1939 13 SI WA NOT_NAMED 1939-02-15 12:00:00 NR -25.8539 110.913 main 240 239 _____P________ -1 -25.8539 110.913 99 4 190
1939040S13128 1939 13 SI WA NOT_NAMED 1939-02-15 15:00:00 NR -26.0277 110.874 main 239 239 _____P________ -1 -26.0277 110.874 99 3 193
1939040S13128 1939 13 SI WA NOT_NAMED 1939-02-15 18:00:00 NR -26.1472 110.836 main 249 249 _____P________ -1 -26.1472 110.836 99 2 198
1939040S13128 1939 13 SI WA NOT_NAMED 1939-02-15 21:00:00 NR -26.2234 110.801 main 249 248 _____P________ -1 -26.2234 110.801 99 1 209
1939040S13128 1939 13 SI WA NOT_NAMED 1939-02-16 00:00:00 NR -26.2670 110.766 main 248 248 _____P________ -1 -26.2670 110.766 99 1 222
1939040S13128 1939 13 SI WA NOT_NAMED 1939-02-16 03:00:00 NR -26.2889 110.733 main 258 258 _____P________ -1 -26.2889 110.733 99 1 241
1939040S13128 1939 13 SI WA NOT_NAMED 1939-02-16 06:00:00 NR -26.3000 110.700 main 258 _____O________ -1 -26.3000 110.700 99 9.90000 1 254

About IBTrACS Database

This database is a web-friendly format of International Best Track Archive for Climate Stewardship (IBTrACS), a global best track data archive curated by NOAA dating back to 1842.

Updated: 2021-10-21